sensor_id;sensor_type;location;lat;lon;timestamp;P1;durP1;ratioP1;P2;durP2;ratioP2
24301;SDS011;12421;49.732;20.078;2023-04-25T00:07:06;24.70;;;20.70;;
24301;SDS011;12421;49.732;20.078;2023-04-25T00:17:10;15.80;;;12.10;;
24301;SDS011;12421;49.732;20.078;2023-04-25T00:27:14;6.10;;;4.00;;
24301;SDS011;12421;49.732;20.078;2023-04-25T00:37:18;3.40;;;2.30;;
24301;SDS011;12421;49.732;20.078;2023-04-25T00:47:22;5.70;;;2.00;;
24301;SDS011;12421;49.732;20.078;2023-04-25T00:57:26;5.30;;;2.20;;
24301;SDS011;12421;49.732;20.078;2023-04-25T01:07:32;3.70;;;2.50;;
24301;SDS011;12421;49.732;20.078;2023-04-25T01:17:36;5.20;;;2.80;;
24301;SDS011;12421;49.732;20.078;2023-04-25T01:27:40;4.70;;;3.00;;
24301;SDS011;12421;49.732;20.078;2023-04-25T01:37:43;4.90;;;3.40;;
24301;SDS011;12421;49.732;20.078;2023-04-25T01:47:48;4.70;;;3.20;;
24301;SDS011;12421;49.732;20.078;2023-04-25T01:57:52;4.80;;;3.50;;
24301;SDS011;12421;49.732;20.078;2023-04-25T02:08:04;4.90;;;3.00;;
24301;SDS011;12421;49.732;20.078;2023-04-25T02:18:09;4.20;;;2.50;;
24301;SDS011;12421;49.732;20.078;2023-04-25T02:28:16;5.20;;;3.00;;
24301;SDS011;12421;49.732;20.078;2023-04-25T02:38:19;5.00;;;3.00;;
24301;SDS011;12421;49.732;20.078;2023-04-25T02:48:22;3.10;;;2.30;;
24301;SDS011;12421;49.732;20.078;2023-04-25T02:58:34;6.50;;;3.60;;
24301;SDS011;12421;49.732;20.078;2023-04-25T03:08:37;4.20;;;3.10;;
24301;SDS011;12421;49.732;20.078;2023-04-25T03:18:40;4.40;;;3.00;;
24301;SDS011;12421;49.732;20.078;2023-04-25T03:28:43;4.00;;;3.00;;
24301;SDS011;12421;49.732;20.078;2023-04-25T03:38:48;4.70;;;2.90;;
24301;SDS011;12421;49.732;20.078;2023-04-25T03:48:52;7.20;;;4.10;;
24301;SDS011;12421;49.732;20.078;2023-04-25T03:58:58;5.00;;;3.90;;
24301;SDS011;12421;49.732;20.078;2023-04-25T04:09:02;5.60;;;4.20;;
24301;SDS011;12421;49.732;20.078;2023-04-25T04:19:10;6.60;;;4.90;;
24301;SDS011;12421;49.732;20.078;2023-04-25T04:29:18;8.00;;;5.00;;
24301;SDS011;12421;49.732;20.078;2023-04-25T04:39:35;6.00;;;5.20;;
24301;SDS011;12421;49.732;20.078;2023-04-25T04:49:45;5.40;;;4.30;;
24301;SDS011;12421;49.732;20.078;2023-04-25T05:00:05;4.90;;;3.60;;
24301;SDS011;12421;49.732;20.078;2023-04-25T05:10:52;5.10;;;4.10;;
24301;SDS011;12421;49.732;20.078;2023-04-25T05:21:07;5.30;;;4.60;;
24301;SDS011;12421;49.732;20.078;2023-04-25T05:31:42;6.90;;;5.60;;
24301;SDS011;12421;49.732;20.078;2023-04-25T05:41:49;8.00;;;6.30;;
24301;SDS011;12421;49.732;20.078;2023-04-25T05:52:11;13.10;;;7.50;;
24301;SDS011;12421;49.732;20.078;2023-04-25T06:02:37;6.70;;;4.80;;
24301;SDS011;12421;49.732;20.078;2023-04-25T06:12:41;11.90;;;9.60;;
24301;SDS011;12421;49.732;20.078;2023-04-25T06:22:48;5.50;;;4.20;;
24301;SDS011;12421;49.732;20.078;2023-04-25T06:32:52;5.40;;;4.50;;
24301;SDS011;12421;49.732;20.078;2023-04-25T06:42:56;6.10;;;4.30;;
24301;SDS011;12421;49.732;20.078;2023-04-25T07:03:51;4.10;;;3.20;;
24301;SDS011;12421;49.732;20.078;2023-04-25T07:24:52;3.50;;;2.20;;
24301;SDS011;12421;49.732;20.078;2023-04-25T07:34:57;5.60;;;2.60;;
24301;SDS011;12421;49.732;20.078;2023-04-25T07:45:01;6.70;;;3.00;;
24301;SDS011;12421;49.732;20.078;2023-04-25T07:55:05;6.40;;;2.70;;
24301;SDS011;12421;49.732;20.078;2023-04-25T08:05:19;5.90;;;3.80;;
24301;SDS011;12421;49.732;20.078;2023-04-25T08:15:29;5.20;;;3.10;;
24301;SDS011;12421;49.732;20.078;2023-04-25T08:25:33;9.80;;;4.50;;
24301;SDS011;12421;49.732;20.078;2023-04-25T08:35:37;4.80;;;3.20;;
24301;SDS011;12421;49.732;20.078;2023-04-25T08:45:41;4.90;;;3.00;;
24301;SDS011;12421;49.732;20.078;2023-04-25T08:55:49;5.50;;;3.70;;
24301;SDS011;12421;49.732;20.078;2023-04-25T09:05:53;5.00;;;3.20;;
24301;SDS011;12421;49.732;20.078;2023-04-25T09:15:58;9.50;;;3.20;;
24301;SDS011;12421;49.732;20.078;2023-04-25T09:26:25;6.50;;;4.70;;
24301;SDS011;12421;49.732;20.078;2023-04-25T09:36:29;8.00;;;4.40;;
24301;SDS011;12421;49.732;20.078;2023-04-25T09:46:52;6.20;;;4.80;;
24301;SDS011;12421;49.732;20.078;2023-04-25T09:57:02;6.60;;;4.20;;
24301;SDS011;12421;49.732;20.078;2023-04-25T10:07:14;7.40;;;3.50;;
24301;SDS011;12421;49.732;20.078;2023-04-25T10:17:19;6.30;;;3.00;;
24301;SDS011;12421;49.732;20.078;2023-04-25T10:27:23;3.60;;;2.20;;
24301;SDS011;12421;49.732;20.078;2023-04-25T10:37:26;3.60;;;2.30;;
24301;SDS011;12421;49.732;20.078;2023-04-25T10:47:36;2.80;;;1.60;;
24301;SDS011;12421;49.732;20.078;2023-04-25T10:57:43;3.90;;;2.40;;
24301;SDS011;12421;49.732;20.078;2023-04-25T11:07:49;4.00;;;2.10;;
24301;SDS011;12421;49.732;20.078;2023-04-25T11:18:09;4.00;;;2.70;;
24301;SDS011;12421;49.732;20.078;2023-04-25T11:28:12;3.70;;;2.40;;
24301;SDS011;12421;49.732;20.078;2023-04-25T11:38:16;6.10;;;3.10;;
24301;SDS011;12421;49.732;20.078;2023-04-25T11:48:19;5.70;;;3.40;;
24301;SDS011;12421;49.732;20.078;2023-04-25T11:58:28;6.50;;;3.50;;
24301;SDS011;12421;49.732;20.078;2023-04-25T12:08:31;6.10;;;3.40;;
24301;SDS011;12421;49.732;20.078;2023-04-25T12:18:35;5.50;;;3.60;;
24301;SDS011;12421;49.732;20.078;2023-04-25T12:28:40;6.00;;;4.10;;
24301;SDS011;12421;49.732;20.078;2023-04-25T12:38:50;8.00;;;4.80;;
24301;SDS011;12421;49.732;20.078;2023-04-25T12:48:54;6.80;;;4.30;;
24301;SDS011;12421;49.732;20.078;2023-04-25T12:59:04;6.80;;;4.70;;
24301;SDS011;12421;49.732;20.078;2023-04-25T13:09:07;6.80;;;5.30;;
24301;SDS011;12421;49.732;20.078;2023-04-25T13:19:13;6.90;;;4.60;;
24301;SDS011;12421;49.732;20.078;2023-04-25T13:29:17;7.00;;;4.50;;
24301;SDS011;12421;49.732;20.078;2023-04-25T13:39:21;7.80;;;3.90;;
24301;SDS011;12421;49.732;20.078;2023-04-25T13:49:27;6.30;;;3.90;;
24301;SDS011;12421;49.732;20.078;2023-04-25T13:59:30;5.20;;;3.40;;
24301;SDS011;12421;49.732;20.078;2023-04-25T14:09:37;6.10;;;4.30;;
24301;SDS011;12421;49.732;20.078;2023-04-25T14:19:43;5.90;;;4.40;;
24301;SDS011;12421;49.732;20.078;2023-04-25T14:30:01;8.50;;;5.10;;
24301;SDS011;12421;49.732;20.078;2023-04-25T14:40:05;6.20;;;4.60;;
24301;SDS011;12421;49.732;20.078;2023-04-25T14:50:31;6.80;;;4.90;;
24301;SDS011;12421;49.732;20.078;2023-04-25T15:00:40;6.60;;;5.70;;
24301;SDS011;12421;49.732;20.078;2023-04-25T15:10:44;11.10;;;7.60;;
24301;SDS011;12421;49.732;20.078;2023-04-25T15:20:52;11.40;;;6.80;;
24301;SDS011;12421;49.732;20.078;2023-04-25T15:30:58;8.20;;;4.50;;
24301;SDS011;12421;49.732;20.078;2023-04-25T15:41:01;10.20;;;5.60;;
24301;SDS011;12421;49.732;20.078;2023-04-25T15:51:07;7.80;;;4.90;;
24301;SDS011;12421;49.732;20.078;2023-04-25T16:01:12;6.90;;;4.80;;
24301;SDS011;12421;49.732;20.078;2023-04-25T16:11:16;7.00;;;4.70;;
24301;SDS011;12421;49.732;20.078;2023-04-25T16:21:19;8.20;;;4.80;;
24301;SDS011;12421;49.732;20.078;2023-04-25T16:31:23;9.00;;;5.60;;
24301;SDS011;12421;49.732;20.078;2023-04-25T16:41:41;9.00;;;5.90;;
24301;SDS011;12421;49.732;20.078;2023-04-25T16:51:45;7.80;;;5.50;;
24301;SDS011;12421;49.732;20.078;2023-04-25T17:12:30;8.20;;;5.20;;
24301;SDS011;12421;49.732;20.078;2023-04-25T17:22:34;7.40;;;5.20;;
24301;SDS011;12421;49.732;20.078;2023-04-25T17:32:58;10.10;;;6.00;;
24301;SDS011;12421;49.732;20.078;2023-04-25T17:43:17;11.80;;;6.10;;
24301;SDS011;12421;49.732;20.078;2023-04-25T17:53:20;10.90;;;6.80;;
24301;SDS011;12421;49.732;20.078;2023-04-25T18:03:29;12.00;;;9.00;;
24301;SDS011;12421;49.732;20.078;2023-04-25T18:13:38;13.70;;;9.70;;
24301;SDS011;12421;49.732;20.078;2023-04-25T18:23:42;15.10;;;10.00;;
24301;SDS011;12421;49.732;20.078;2023-04-25T18:33:51;15.20;;;11.00;;
24301;SDS011;12421;49.732;20.078;2023-04-25T18:44:12;17.10;;;12.50;;
24301;SDS011;12421;49.732;20.078;2023-04-25T18:54:21;20.60;;;14.60;;
24301;SDS011;12421;49.732;20.078;2023-04-25T19:04:26;21.10;;;15.80;;
24301;SDS011;12421;49.732;20.078;2023-04-25T19:14:34;28.50;;;19.20;;
24301;SDS011;12421;49.732;20.078;2023-04-25T19:24:44;32.30;;;17.40;;
24301;SDS011;12421;49.732;20.078;2023-04-25T19:45:13;28.50;;;18.90;;
24301;SDS011;12421;49.732;20.078;2023-04-25T19:56:35;23.20;;;15.70;;
24301;SDS011;12421;49.732;20.078;2023-04-25T20:06:58;29.40;;;16.10;;
24301;SDS011;12421;49.732;20.078;2023-04-25T20:17:13;26.30;;;16.90;;
24301;SDS011;12421;49.732;20.078;2023-04-25T20:27:24;20.40;;;13.60;;
24301;SDS011;12421;49.732;20.078;2023-04-25T20:37:28;21.90;;;15.80;;
24301;SDS011;12421;49.732;20.078;2023-04-25T20:47:38;32.20;;;20.60;;
24301;SDS011;12421;49.732;20.078;2023-04-25T20:57:42;40.60;;;27.00;;
24301;SDS011;12421;49.732;20.078;2023-04-25T21:08:00;34.50;;;24.50;;
24301;SDS011;12421;49.732;20.078;2023-04-25T21:18:10;30.70;;;21.30;;
24301;SDS011;12421;49.732;20.078;2023-04-25T21:28:14;25.50;;;18.50;;
24301;SDS011;12421;49.732;20.078;2023-04-25T21:38:17;34.10;;;23.30;;
24301;SDS011;12421;49.732;20.078;2023-04-25T21:48:20;29.40;;;19.80;;
24301;SDS011;12421;49.732;20.078;2023-04-25T21:58:23;29.90;;;22.90;;
24301;SDS011;12421;49.732;20.078;2023-04-25T22:08:27;31.40;;;23.00;;
24301;SDS011;12421;49.732;20.078;2023-04-25T22:18:30;24.70;;;18.70;;
24301;SDS011;12421;49.732;20.078;2023-04-25T22:28:34;24.50;;;17.80;;
24301;SDS011;12421;49.732;20.078;2023-04-25T22:38:37;34.10;;;21.50;;
24301;SDS011;12421;49.732;20.078;2023-04-25T22:48:43;25.70;;;18.50;;
24301;SDS011;12421;49.732;20.078;2023-04-25T22:58:47;19.70;;;14.10;;
24301;SDS011;12421;49.732;20.078;2023-04-25T23:08:52;17.60;;;10.70;;
24301;SDS011;12421;49.732;20.078;2023-04-25T23:18:56;13.50;;;9.20;;
24301;SDS011;12421;49.732;20.078;2023-04-25T23:28:59;11.00;;;7.60;;
24301;SDS011;12421;49.732;20.078;2023-04-25T23:39:02;10.20;;;6.50;;
24301;SDS011;12421;49.732;20.078;2023-04-25T23:49:06;12.10;;;6.80;;
24301;SDS011;12421;49.732;20.078;2023-04-25T23:59:09;9.60;;;6.20;;
